Time;durP1;ratioP1;P1;durP2;ratioP2;P2;SDS_P1;SDS_P2;PMS_P1;PMS_P2;Temp;Humidity;BMP_temperature;BMP_pressure;BME280_temperature;BME280_humidity;BME280_pressure;Samples;Min_cycle;Max_cycle;Signal;HPM_P1;HPM_P2
2021/05/03 00:01:51;;;;;;;9.17;3.43;;;;;;;;;;5111424;27;20291;-74
2021/05/03 00:04:17;;;;;;;4.93;2.77;;;;;;;;;;5121950;27;20416;-74
2021/05/03 00:06:43;;;;;;;5.70;2.72;;;;;;;;;;5128228;27;20518;-74
2021/05/03 00:09:09;;;;;;;7.45;2.67;;;;;;;;;;5114435;28;20724;-74
2021/05/03 00:11:35;;;;;;;4.22;2.90;;;;;;;;;;5110134;27;20166;-74
2021/05/03 00:14:01;;;;;;;5.75;2.97;;;;;;;;;;5112842;27;20300;-74
2021/05/03 00:16:27;;;;;;;8.75;2.70;;;;;;;;;;5118595;27;20214;-74
2021/05/03 00:18:53;;;;;;;3.60;2.30;;;;;;;;;;5134641;27;20662;-74
2021/05/03 00:21:19;;;;;;;4.40;2.60;;;;;;;;;;5133983;27;20490;-74
2021/05/03 00:23:45;;;;;;;3.40;2.93;;;;;;;;;;5123735;27;20210;-73
2021/05/03 00:26:11;;;;;;;5.18;3.10;;;;;;;;;;5114410;28;20956;-74
2021/05/03 00:28:41;;;;;;;3.20;2.67;;;;;;;;;;5123240;27;20225;-74
2021/05/03 00:31:07;;;;;;;6.63;4.35;;;;;;;;;;5111579;27;20251;-74
2021/05/03 00:33:33;;;;;;;5.90;3.53;;;;;;;;;;5125961;27;20207;-74
2021/05/03 00:35:59;;;;;;;5.80;4.07;;;;;;;;;;5104480;27;20803;-73
2021/05/03 00:38:25;;;;;;;6.57;3.67;;;;;;;;;;5116106;27;20275;-73
2021/05/03 00:40:51;;;;;;;6.80;4.10;;;;;;;;;;5119362;27;20898;-73
2021/05/03 00:43:20;;;;;;;4.80;4.13;;;;;;;;;;5113300;27;20659;-73
2021/05/03 00:45:47;;;;;;;6.55;3.85;;;;;;;;;;5114389;28;20182;-74
2021/05/03 00:48:13;;;;;;;3.70;3.33;;;;;;;;;;5125465;27;20200;-74
2021/05/03 00:50:39;;;;;;;4.90;3.70;;;;;;;;;;5111410;27;20718;-73
2021/05/03 00:53:05;;;;;;;5.70;4.40;;;;;;;;;;5114367;27;20403;-73
2021/05/03 00:55:31;;;;;;;5.47;4.38;;;;;;;;;;5113756;27;20227;-74
2021/05/03 00:57:57;;;;;;;6.80;3.83;;;;;;;;;;5133789;27;20208;-73
2021/05/03 01:00:27;;;;;;;5.27;4.20;;;;;;;;;;5130034;27;20178;-72
2021/05/03 01:02:53;;;;;;;6.28;4.40;;;;;;;;;;5120255;27;20393;-72
2021/05/03 01:05:20;;;;;;;5.07;3.88;;;;;;;;;;5113796;28;20592;-73
2021/05/03 01:07:46;;;;;;;5.50;4.53;;;;;;;;;;5113696;27;20199;-73
2021/05/03 01:10:12;;;;;;;5.13;4.10;;;;;;;;;;5116928;27;20223;-74
2021/05/03 01:12:38;;;;;;;4.90;4.40;;;;;;;;;;5116438;27;20167;-74
2021/05/03 01:15:05;;;;;;;5.15;4.15;;;;;;;;;;5113542;28;20167;-74
2021/05/03 01:17:32;;;;;;;7.85;4.68;;;;;;;;;;5125684;27;20246;-74
2021/05/03 01:19:58;;;;;;;6.95;4.68;;;;;;;;;;5124037;27;20186;-74
2021/05/03 01:22:24;;;;;;;6.25;4.30;;;;;;;;;;5118315;27;20178;-74
2021/05/03 01:24:50;;;;;;;6.25;4.55;;;;;;;;;;5113401;28;20178;-74
2021/05/03 01:27:16;;;;;;;7.85;4.10;;;;;;;;;;5110989;28;20185;-74
2021/05/03 01:29:42;;;;;;;7.60;4.70;;;;;;;;;;5133250;28;20197;-73
2021/05/03 01:32:08;;;;;;;8.60;4.57;;;;;;;;;;5111976;28;20420;-73
2021/05/03 01:34:34;;;;;;;7.35;4.68;;;;;;;;;;5115295;28;20378;-73
2021/05/03 01:37:00;;;;;;;7.33;4.67;;;;;;;;;;5109245;28;20501;-72
2021/05/03 01:39:26;;;;;;;5.55;4.22;;;;;;;;;;5111117;28;20439;-72
2021/05/03 01:41:52;;;;;;;5.97;4.00;;;;;;;;;;5122037;28;20197;-73
2021/05/03 01:44:18;;;;;;;4.83;3.97;;;;;;;;;;5107200;28;20415;-74
2021/05/03 01:46:44;;;;;;;8.40;4.30;;;;;;;;;;5113633;28;20451;-72
2021/05/03 01:49:10;;;;;;;4.95;4.30;;;;;;;;;;5119904;28;20459;-74
2021/05/03 01:51:38;;;;;;;4.55;3.90;;;;;;;;;;5120173;28;20667;-73
2021/05/03 01:54:05;;;;;;;7.57;3.53;;;;;;;;;;5105333;28;20639;-74
2021/05/03 01:56:31;;;;;;;5.55;4.00;;;;;;;;;;5118081;28;20179;-74
2021/05/03 01:58:57;;;;;;;4.18;3.75;;;;;;;;;;5100705;28;20241;-74
2021/05/03 02:01:23;;;;;;;5.70;3.30;;;;;;;;;;5113627;27;20186;-74
2021/05/03 02:03:49;;;;;;;5.18;4.10;;;;;;;;;;5120830;27;20189;-74
2021/05/03 02:06:16;;;;;;;3.60;3.22;;;;;;;;;;5129218;27;20689;-74
2021/05/03 02:08:43;;;;;;;6.25;3.97;;;;;;;;;;5123677;27;20194;-74
2021/05/03 02:11:09;;;;;;;4.75;3.38;;;;;;;;;;5118872;27;20171;-73
2021/05/03 02:13:36;;;;;;;3.58;3.20;;;;;;;;;;5112753;27;20542;-74
2021/05/03 02:16:02;;;;;;;3.88;3.05;;;;;;;;;;5114997;27;20500;-73
2021/05/03 02:18:28;;;;;;;4.05;3.50;;;;;;;;;;5123345;27;20221;-74
2021/05/03 02:20:54;;;;;;;3.92;3.30;;;;;;;;;;5133514;27;20523;-74
2021/05/03 02:23:20;;;;;;;4.82;3.45;;;;;;;;;;5129587;27;20187;-74
2021/05/03 02:25:46;;;;;;;4.20;3.10;;;;;;;;;;5105359;27;20540;-74
2021/05/03 02:28:12;;;;;;;7.20;4.03;;;;;;;;;;5134891;27;20205;-75
2021/05/03 02:30:39;;;;;;;3.30;3.00;;;;;;;;;;5115026;27;20171;-75
2021/05/03 02:33:05;;;;;;;4.88;3.40;;;;;;;;;;5114226;27;20232;-74
2021/05/03 02:35:33;;;;;;;6.85;3.30;;;;;;;;;;5112656;27;20645;-75
2021/05/03 02:38:01;;;;;;;5.60;3.90;;;;;;;;;;5116197;28;20239;-74
2021/05/03 02:40:27;;;;;;;5.20;3.78;;;;;;;;;;5128699;27;20181;-75
2021/05/03 02:42:57;;;;;;;5.35;3.70;;;;;;;;;;5111369;27;20647;-73
2021/05/03 02:45:23;;;;;;;4.43;3.70;;;;;;;;;;5119874;27;20185;-74
2021/05/03 02:47:50;;;;;;;4.50;3.50;;;;;;;;;;5122605;27;20214;-73
2021/05/03 02:50:16;;;;;;;4.25;3.78;;;;;;;;;;5110189;27;20236;-75
2021/05/03 02:52:43;;;;;;;3.60;2.83;;;;;;;;;;5123886;27;20190;-74
2021/05/03 02:55:11;;;;;;;3.90;3.25;;;;;;;;;;5116450;27;20185;-74
2021/05/03 02:57:37;;;;;;;4.15;3.45;;;;;;;;;;5121203;27;20195;-75
2021/05/03 03:00:05;;;;;;;6.20;3.50;;;;;;;;;;5120256;27;20199;-74
2021/05/03 03:02:31;;;;;;;5.47;3.88;;;;;;;;;;5116671;27;20187;-74
2021/05/03 03:04:57;;;;;;;4.07;3.67;;;;;;;;;;5115500;28;20198;-74
2021/05/03 03:07:23;;;;;;;7.00;4.43;;;;;;;;;;5125749;27;20439;-74
2021/05/03 03:09:49;;;;;;;4.93;4.40;;;;;;;;;;5128761;27;20521;-74
2021/05/03 03:12:15;;;;;;;7.03;4.70;;;;;;;;;;5114074;28;20214;-74
2021/05/03 03:14:42;;;;;;;6.30;5.18;;;;;;;;;;5116118;27;20754;-74
2021/05/03 03:17:08;;;;;;;6.80;4.93;;;;;;;;;;5126978;27;20592;-74
2021/05/03 03:19:37;;;;;;;5.28;4.78;;;;;;;;;;5116376;27;20196;-74
2021/05/03 03:22:03;;;;;;;6.03;5.07;;;;;;;;;;5110501;27;20191;-77
2021/05/03 03:24:29;;;;;;;5.65;5.13;;;;;;;;;;5111568;27;20632;-74
2021/05/03 03:26:55;;;;;;;4.93;4.30;;;;;;;;;;5131013;27;20186;-75
2021/05/03 03:29:21;;;;;;;6.23;4.37;;;;;;;;;;5116983;27;20462;-75
2021/05/03 03:31:47;;;;;;;5.50;5.00;;;;;;;;;;5125940;27;20423;-75
2021/05/03 03:34:13;;;;;;;5.83;4.70;;;;;;;;;;5135745;27;20906;-74
2021/05/03 03:36:39;;;;;;;6.17;4.90;;;;;;;;;;5120867;27;20756;-74
2021/05/03 03:39:06;;;;;;;5.25;4.75;;;;;;;;;;5116624;27;20497;-73
2021/05/03 03:41:32;;;;;;;5.55;4.65;;;;;;;;;;5113543;27;20187;-75
2021/05/03 03:43:58;;;;;;;6.10;4.85;;;;;;;;;;5110035;27;20314;-74
2021/05/03 03:46:24;;;;;;;6.13;5.20;;;;;;;;;;5116773;27;20659;-75
2021/05/03 03:48:50;;;;;;;5.70;4.43;;;;;;;;;;5116305;27;20475;-74
2021/05/03 03:51:16;;;;;;;7.68;4.38;;;;;;;;;;5114690;28;20472;-73
2021/05/03 03:53:42;;;;;;;9.93;5.03;;;;;;;;;;5128352;27;20177;-74
2021/05/03 03:56:09;;;;;;;4.30;3.90;;;;;;;;;;5127164;27;20174;-76
2021/05/03 03:58:35;;;;;;;7.15;4.65;;;;;;;;;;5135271;27;20209;-73
2021/05/03 04:01:01;;;;;;;6.25;5.03;;;;;;;;;;5123699;27;20174;-74
2021/05/03 04:03:27;;;;;;;5.85;4.43;;;;;;;;;;5107228;27;20649;-75
2021/05/03 04:08:45;;;;;;;6.68;4.80;;;;;;;;;;5135099;27;20533;-74
2021/05/03 04:11:31;;;;;;;7.57;4.72;;;;;;;;;;5121278;27;20178;-74
2021/05/03 04:14:13;;;;;;;7.20;4.60;;;;;;;;;;5114311;27;20205;-74
2021/05/03 04:27:15;;;;;;;6.00;4.57;;;;;;;;;;5120383;27;20197;-74
2021/05/03 04:29:41;;;;;;;6.00;4.60;;;;;;;;;;5112303;27;20207;-74
2021/05/03 04:32:07;;;;;;;4.35;3.95;;;;;;;;;;5124617;27;20483;-74
2021/05/03 04:34:33;;;;;;;5.18;4.68;;;;;;;;;;5120465;27;20613;-74
2021/05/03 04:36:59;;;;;;;5.70;4.63;;;;;;;;;;5118637;27;20206;-75
2021/05/03 04:39:25;;;;;;;4.63;4.20;;;;;;;;;;5119851;27;20397;-74
2021/05/03 04:41:51;;;;;;;5.20;4.70;;;;;;;;;;5118486;27;20424;-73
2021/05/03 04:44:17;;;;;;;5.80;4.10;;;;;;;;;;5111598;28;20261;-73
2021/05/03 04:46:43;;;;;;;5.30;4.03;;;;;;;;;;5115653;27;20269;-74
2021/05/03 04:49:09;;;;;;;5.32;4.45;;;;;;;;;;5134484;27;20437;-72
2021/05/03 04:51:35;;;;;;;6.63;4.30;;;;;;;;;;5130063;27;20594;-74
2021/05/03 04:54:01;;;;;;;5.28;4.43;;;;;;;;;;5130417;27;20423;-74
2021/05/03 04:56:27;;;;;;;7.93;4.70;;;;;;;;;;5119548;27;20233;-75
2021/05/03 04:58:53;;;;;;;5.73;4.60;;;;;;;;;;5134315;27;20515;-73
2021/05/03 05:01:19;;;;;;;6.77;5.13;;;;;;;;;;5121778;27;20533;-74
2021/05/03 05:03:45;;;;;;;5.67;4.57;;;;;;;;;;5122457;27;20830;-72
2021/05/03 05:06:11;;;;;;;7.53;4.50;;;;;;;;;;5115749;27;20445;-74
2021/05/03 05:08:37;;;;;;;5.87;5.27;;;;;;;;;;5115265;27;20201;-75
2021/05/03 05:11:03;;;;;;;5.45;4.53;;;;;;;;;;5114016;27;20384;-73
2021/05/03 05:13:29;;;;;;;7.10;5.30;;;;;;;;;;5116592;27;20179;-74
2021/05/03 05:15:55;;;;;;;5.17;4.67;;;;;;;;;;5115367;27;20385;-72
2021/05/03 05:18:21;;;;;;;8.55;4.68;;;;;;;;;;5116492;27;20455;-73
2021/05/03 05:20:47;;;;;;;5.15;4.40;;;;;;;;;;5114984;28;20182;-73
2021/05/03 05:23:13;;;;;;;6.35;5.35;;;;;;;;;;5116165;27;20181;-74
2021/05/03 05:25:39;;;;;;;4.70;4.30;;;;;;;;;;5117990;27;20185;-74
2021/05/03 05:28:05;;;;;;;11.63;4.25;;;;;;;;;;5112455;28;20198;-73
2021/05/03 05:30:31;;;;;;;7.03;4.85;;;;;;;;;;5113576;28;20324;-72
2021/05/03 05:32:57;;;;;;;4.70;4.30;;;;;;;;;;5117832;27;20308;-75
2021/05/03 05:35:23;;;;;;;6.20;4.50;;;;;;;;;;5121496;28;20187;-74
2021/05/03 05:37:49;;;;;;;6.07;4.03;;;;;;;;;;5113166;28;20759;-74
2021/05/03 05:40:15;;;;;;;4.90;4.40;;;;;;;;;;5112984;28;20262;-73
2021/05/03 05:42:41;;;;;;;5.83;4.30;;;;;;;;;;5131922;28;20743;-75
2021/05/03 05:45:07;;;;;;;5.00;4.50;;;;;;;;;;5120849;28;20463;-74
2021/05/03 05:47:33;;;;;;;6.97;4.50;;;;;;;;;;5107597;28;20540;-73
2021/05/03 05:49:59;;;;;;;5.25;4.07;;;;;;;;;;5115656;28;20282;-73
2021/05/03 05:52:25;;;;;;;6.57;4.90;;;;;;;;;;5133926;28;20277;-75
2021/05/03 05:54:51;;;;;;;4.65;4.20;;;;;;;;;;5133854;28;20411;-74
2021/05/03 05:57:17;;;;;;;5.10;4.13;;;;;;;;;;5123008;28;20668;-75
2021/05/03 05:59:43;;;;;;;5.00;4.50;;;;;;;;;;5128732;28;20734;-75
2021/05/03 06:02:09;;;;;;;7.00;4.00;;;;;;;;;;5112668;28;20489;-74
2021/05/03 06:04:36;;;;;;;4.93;4.47;;;;;;;;;;5114519;28;20418;-76
2021/05/03 06:07:02;;;;;;;5.97;4.65;;;;;;;;;;5124386;28;20821;-75
2021/05/03 06:09:28;;;;;;;6.47;4.30;;;;;;;;;;5128340;28;20229;-75
2021/05/03 06:11:54;;;;;;;6.10;4.23;;;;;;;;;;5124579;28;20400;-75
2021/05/03 06:14:20;;;;;;;5.57;4.10;;;;;;;;;;5119610;28;20379;-75
2021/05/03 06:16:46;;;;;;;4.73;4.07;;;;;;;;;;5101885;28;20433;-74
2021/05/03 06:19:12;;;;;;;8.47;4.43;;;;;;;;;;5102904;28;21042;-76
2021/05/03 06:21:38;;;;;;;4.03;3.63;;;;;;;;;;5104796;28;20503;-73
2021/05/03 06:24:04;;;;;;;4.90;3.90;;;;;;;;;;5105711;28;20187;-74
2021/05/03 06:26:30;;;;;;;4.95;3.95;;;;;;;;;;5129951;28;20558;-74
2021/05/03 06:28:56;;;;;;;4.50;3.20;;;;;;;;;;5114855;28;20195;-74
2021/05/03 06:31:22;;;;;;;5.60;4.87;;;;;;;;;;5123428;28;20990;-74
2021/05/03 06:33:48;;;;;;;4.82;4.35;;;;;;;;;;5108686;28;20415;-75
2021/05/03 06:36:14;;;;;;;5.33;4.73;;;;;;;;;;5102431;28;20179;-73
2021/05/03 06:38:40;;;;;;;4.70;4.05;;;;;;;;;;5116648;28;20447;-76
2021/05/03 06:41:06;;;;;;;5.70;4.65;;;;;;;;;;5115095;28;20184;-74
2021/05/03 06:43:32;;;;;;;6.93;3.75;;;;;;;;;;5129248;28;20587;-75
2021/05/03 06:45:58;;;;;;;4.53;4.13;;;;;;;;;;5111179;28;20186;-74
2021/05/03 06:48:24;;;;;;;7.22;4.60;;;;;;;;;;5123853;27;20708;-74
2021/05/03 06:50:50;;;;;;;5.75;4.05;;;;;;;;;;5106772;27;20539;-75
2021/05/03 06:53:17;;;;;;;4.00;3.60;;;;;;;;;;5104465;27;20183;-74
2021/05/03 06:55:45;;;;;;;5.68;3.70;;;;;;;;;;5131331;27;20374;-75
2021/05/03 06:58:12;;;;;;;4.32;3.90;;;;;;;;;;5121853;27;20555;-75
2021/05/03 07:00:41;;;;;;;4.30;3.30;;;;;;;;;;5131988;27;20592;-74
2021/05/03 07:03:11;;;;;;;4.25;3.33;;;;;;;;;;5122666;27;20186;-75
2021/05/03 07:05:38;;;;;;;4.07;3.65;;;;;;;;;;5105858;27;20200;-75
2021/05/03 07:08:04;;;;;;;3.95;3.47;;;;;;;;;;5125872;27;20328;-74
2021/05/03 07:10:30;;;;;;;3.65;3.25;;;;;;;;;;5122585;27;20212;-73
2021/05/03 07:12:57;;;;;;;4.57;3.63;;;;;;;;;;5112027;27;20638;-74
2021/05/03 07:15:23;;;;;;;4.43;3.05;;;;;;;;;;5119403;27;20216;-74
2021/05/03 07:17:49;;;;;;;4.68;3.45;;;;;;;;;;5122385;27;20217;-74
2021/05/03 07:20:16;;;;;;;3.30;3.00;;;;;;;;;;5110150;27;20571;-74
2021/05/03 07:22:42;;;;;;;4.65;3.20;;;;;;;;;;5129235;27;20185;-74
2021/05/03 07:25:09;;;;;;;4.35;3.25;;;;;;;;;;5115706;27;20701;-74
2021/05/03 07:27:35;;;;;;;4.30;3.75;;;;;;;;;;5114884;27;20202;-75
2021/05/03 07:30:01;;;;;;;3.45;3.00;;;;;;;;;;5111528;28;20210;-74
2021/05/03 07:32:28;;;;;;;3.33;3.03;;;;;;;;;;5120262;27;20173;-72
2021/05/03 07:34:54;;;;;;;4.95;2.45;;;;;;;;;;5111182;27;20229;-74
2021/05/03 07:37:19;;;;;;;2.75;2.45;;;;;;;;;;5112132;27;20626;-74
2021/05/03 07:39:46;;;;;;;4.10;2.97;;;;;;;;;;5121703;27;20178;-74
2021/05/03 07:42:12;;;;;;;4.07;2.50;;;;;;;;;;5127349;27;20507;-74
2021/05/03 07:44:38;;;;;;;4.30;2.50;;;;;;;;;;5119401;27;20182;-74
2021/05/03 07:47:04;;;;;;;5.65;3.67;;;;;;;;;;5111502;28;20179;-74
2021/05/03 07:49:30;;;;;;;3.45;2.58;;;;;;;;;;5126618;27;20202;-74
2021/05/03 07:51:56;;;;;;;5.03;2.50;;;;;;;;;;5111340;28;20182;-74
2021/05/03 07:54:23;;;;;;;5.23;2.30;;;;;;;;;;5105744;27;20236;-73
2021/05/03 07:56:49;;;;;;;3.90;2.53;;;;;;;;;;5124078;27;20419;-75
2021/05/03 07:59:15;;;;;;;5.35;2.70;;;;;;;;;;5115497;27;20248;-73
2021/05/03 08:01:41;;;;;;;5.18;3.13;;;;;;;;;;5124574;27;20186;-74
2021/05/03 08:04:07;;;;;;;3.10;2.80;;;;;;;;;;5118841;27;20179;-74
2021/05/03 08:06:33;;;;;;;3.85;2.83;;;;;;;;;;5121700;27;20209;-74
2021/05/03 08:09:04;;;;;;;3.67;3.00;;;;;;;;;;5103411;27;20206;-75
2021/05/03 08:11:30;;;;;;;5.50;3.17;;;;;;;;;;5117214;27;20821;-74
2021/05/03 08:13:56;;;;;;;2.83;2.42;;;;;;;;;;5112692;27;20176;-75
2021/05/03 08:16:23;;;;;;;4.00;3.33;;;;;;;;;;5099668;27;20193;-75
2021/05/03 08:18:49;;;;;;;4.15;3.75;;;;;;;;;;5104270;27;20894;-75
2021/05/03 08:21:15;;;;;;;3.13;2.80;;;;;;;;;;5125945;27;20178;-76
2021/05/03 08:23:41;;;;;;;3.53;3.20;;;;;;;;;;5102489;28;20194;-75
2021/05/03 08:26:08;;;;;;;3.50;3.20;;;;;;;;;;5109019;27;20189;-74
2021/05/03 08:28:34;;;;;;;3.60;3.30;;;;;;;;;;5108760;28;20252;-75
2021/05/03 08:31:00;;;;;;;3.10;2.80;;;;;;;;;;5114149;27;20178;-74
2021/05/03 08:33:27;;;;;;;5.90;2.80;;;;;;;;;;5130939;27;20487;-74
2021/05/03 08:35:56;;;;;;;3.72;3.13;;;;;;;;;;5100299;27;20515;-74
2021/05/03 08:38:22;;;;;;;3.63;3.20;;;;;;;;;;5130444;27;20210;-75
2021/05/03 08:40:48;;;;;;;4.28;3.45;;;;;;;;;;5116062;27;20178;-73
2021/05/03 08:43:14;;;;;;;3.47;3.17;;;;;;;;;;5130648;27;20185;-73
2021/05/03 08:45:41;;;;;;;3.30;2.83;;;;;;;;;;5105167;27;20418;-74
2021/05/03 08:48:14;;;;;;;4.78;3.75;;;;;;;;;;5130488;27;20443;-73
2021/05/03 08:53:36;;;;;;;5.68;3.53;;;;;;;;;;5129185;27;20220;-74
2021/05/03 08:56:02;;;;;;;4.70;3.00;;;;;;;;;;5109097;28;20174;-74
2021/05/03 08:58:28;;;;;;;4.40;3.63;;;;;;;;;;5127099;27;20202;-74
2021/05/03 09:00:54;;;;;;;3.70;3.40;;;;;;;;;;5117813;27;20235;-75
2021/05/03 09:03:21;;;;;;;3.97;3.55;;;;;;;;;;5130676;27;20447;-74
2021/05/03 09:05:47;;;;;;;4.88;3.90;;;;;;;;;;5121369;27;20204;-75
2021/05/03 09:08:22;;;;;;;4.47;4.07;;;;;;;;;;5129358;27;20562;-74
2021/05/03 09:10:48;;;;;;;3.90;3.50;;;;;;;;;;5105300;27;20544;-72
2021/05/03 09:13:15;;;;;;;4.70;4.30;;;;;;;;;;5122226;27;20247;-74
2021/05/03 09:15:43;;;;;;;5.00;4.28;;;;;;;;;;5120521;27;20173;-74
2021/05/03 09:18:09;;;;;;;5.15;4.50;;;;;;;;;;5121356;27;20199;-74
2021/05/03 09:20:35;;;;;;;4.77;4.30;;;;;;;;;;5102716;28;20247;-73
2021/05/03 09:23:13;;;;;;;4.85;4.07;;;;;;;;;;5118514;27;20421;-74
2021/05/03 09:25:42;;;;;;;4.53;4.13;;;;;;;;;;5110043;28;20173;-76
2021/05/03 09:28:11;;;;;;;4.85;4.45;;;;;;;;;;5118876;27;20210;-76
2021/05/03 09:30:47;;;;;;;7.80;4.97;;;;;;;;;;5124519;27;20496;-75
2021/05/03 09:33:22;;;;;;;6.40;4.95;;;;;;;;;;5120339;28;20189;-75
2021/05/03 09:35:52;;;;;;;4.90;4.50;;;;;;;;;;5112947;28;20264;-75
2021/05/03 09:38:32;;;;;;;5.05;4.60;;;;;;;;;;5110998;28;20265;-74
2021/05/03 09:41:08;;;;;;;7.07;5.70;;;;;;;;;;5128437;28;20238;-75
2021/05/03 09:43:34;;;;;;;9.48;8.57;;;;;;;;;;5116946;28;20186;-74
2021/05/03 09:46:00;;;;;;;10.15;9.38;;;;;;;;;;5116910;28;20253;-74
2021/05/03 09:48:26;;;;;;;10.52;9.73;;;;;;;;;;5119863;28;20305;-73
2021/05/03 09:50:52;;;;;;;9.75;8.75;;;;;;;;;;5112176;28;20179;-74
2021/05/03 09:53:18;;;;;;;9.27;8.50;;;;;;;;;;5120277;28;20257;-74
2021/05/03 09:55:45;;;;;;;7.90;7.30;;;;;;;;;;5126129;28;20265;-75
2021/05/03 09:58:13;;;;;;;8.75;8.05;;;;;;;;;;5116502;28;20202;-75
2021/05/03 10:00:40;;;;;;;7.85;7.25;;;;;;;;;;5129897;28;20177;-75
2021/05/03 10:03:25;;;;;;;8.25;7.65;;;;;;;;;;5114198;28;20616;-74
2021/05/03 10:05:51;;;;;;;8.77;8.07;;;;;;;;;;5120688;28;20272;-74
2021/05/03 10:08:17;;;;;;;7.65;7.05;;;;;;;;;;5105823;28;20205;-75
2021/05/03 10:10:48;;;;;;;7.70;7.00;;;;;;;;;;5121949;28;20182;-74
2021/05/03 10:13:14;;;;;;;7.45;6.95;;;;;;;;;;5104412;28;20424;-76
2021/05/03 10:15:40;;;;;;;7.20;6.57;;;;;;;;;;5121490;28;20185;-74
2021/05/03 10:18:06;;;;;;;6.68;6.25;;;;;;;;;;5109844;28;20194;-74
2021/05/03 10:20:32;;;;;;;5.82;5.30;;;;;;;;;;5111892;28;20206;-75
2021/05/03 10:22:58;;;;;;;5.97;5.47;;;;;;;;;;5108363;27;20205;-75
2021/05/03 10:25:24;;;;;;;6.70;5.20;;;;;;;;;;5125586;27;20428;-74
2021/05/03 10:27:52;;;;;;;4.13;3.83;;;;;;;;;;5116371;27;20431;-77
2021/05/03 10:30:23;;;;;;;4.28;3.97;;;;;;;;;;5120211;27;20206;-73
2021/05/03 10:32:58;;;;;;;4.93;4.53;;;;;;;;;;5119080;27;20580;-75
2021/05/03 10:35:28;;;;;;;4.57;4.28;;;;;;;;;;5114824;27;20535;-74
2021/05/03 10:37:54;;;;;;;6.05;5.55;;;;;;;;;;5133098;27;20194;-75
2021/05/03 10:40:20;;;;;;;5.70;5.30;;;;;;;;;;5117389;27;20183;-75
2021/05/03 10:43:02;;;;;;;6.20;5.80;;;;;;;;;;5114848;27;20191;-74
2021/05/03 10:45:56;;;;;;;7.30;6.80;;;;;;;;;;5126156;27;20737;-74
2021/05/03 10:48:31;;;;;;;7.97;7.25;;;;;;;;;;5125227;27;20198;-75
2021/05/03 10:50:58;;;;;;;8.43;7.72;;;;;;;;;;5111244;27;20531;-75
2021/05/03 10:55:56;;;;;;;8.15;7.55;;;;;;;;;;5125534;27;20659;-75
2021/05/03 10:58:22;;;;;;;8.40;7.80;;;;;;;;;;5124609;27;20194;-75
2021/05/03 11:00:57;;;;;;;8.05;7.45;;;;;;;;;;5127849;27;20174;-74
2021/05/03 11:03:42;;;;;;;8.30;7.55;;;;;;;;;;5113260;27;20177;-75
2021/05/03 11:06:08;;;;;;;8.85;8.13;;;;;;;;;;5119723;27;20547;-75
2021/05/03 11:08:34;;;;;;;9.00;8.40;;;;;;;;;;5117580;27;20198;-75
2021/05/03 11:11:01;;;;;;;8.53;7.93;;;;;;;;;;5112854;27;20233;-74
2021/05/03 11:13:37;;;;;;;8.10;7.50;;;;;;;;;;5113910;27;20428;-75
2021/05/03 11:16:21;;;;;;;8.70;8.00;;;;;;;;;;5124190;27;20205;-75
2021/05/03 11:18:47;;;;;;;8.07;7.57;;;;;;;;;;5126403;27;20205;-74
2021/05/03 11:21:15;;;;;;;8.37;7.77;;;;;;;;;;5130322;27;20181;-74
2021/05/03 11:23:41;;;;;;;9.00;8.27;;;;;;;;;;5129603;27;20518;-74
2021/05/03 11:26:25;;;;;;;8.88;8.07;;;;;;;;;;5132354;27;20677;-75
2021/05/03 11:28:51;;;;;;;9.00;8.30;;;;;;;;;;5104627;27;20207;-74
2021/05/03 11:31:20;;;;;;;9.20;8.40;;;;;;;;;;5111108;27;20250;-73
2021/05/03 11:33:58;;;;;;;8.82;8.00;;;;;;;;;;5093568;28;20342;-74
2021/05/03 11:36:28;;;;;;;9.30;8.50;;;;;;;;;;5107878;27;20209;-74
2021/05/03 11:38:59;;;;;;;9.75;8.95;;;;;;;;;;5111208;27;20207;-74
2021/05/03 11:46:31;;;;;;;10.20;9.40;;;;;;;;;;5111370;28;20655;-74
2021/05/03 11:48:58;;;;;;;10.93;10.02;;;;;;;;;;5115482;27;20441;-74
2021/05/03 11:51:25;;;;;;;10.32;9.57;;;;;;;;;;5120941;27;20644;-73
2021/05/03 11:53:51;;;;;;;9.73;9.00;;;;;;;;;;5119139;27;20183;-74
2021/05/03 11:56:28;;;;;;;10.80;9.85;;;;;;;;;;5121258;27;20185;-72
2021/05/03 11:58:55;;;;;;;11.55;10.55;;;;;;;;;;5124898;27;20196;-73
2021/05/03 12:01:22;;;;;;;10.50;9.60;;;;;;;;;;5129838;27;20727;-74
2021/05/03 12:03:49;;;;;;;11.23;10.18;;;;;;;;;;5104297;27;20249;-74
2021/05/03 12:06:30;;;;;;;10.93;9.90;;;;;;;;;;5122422;27;20198;-74
2021/05/03 12:09:00;;;;;;;11.88;10.75;;;;;;;;;;5114548;27;20540;-73
2021/05/03 12:11:26;;;;;;;11.13;10.18;;;;;;;;;;5118605;27;20199;-73
2021/05/03 12:13:56;;;;;;;13.00;11.90;;;;;;;;;;5131681;27;20174;-74
2021/05/03 12:16:38;;;;;;;12.27;11.18;;;;;;;;;;5110320;27;20436;-74
2021/05/03 12:19:18;;;;;;;11.95;10.85;;;;;;;;;;5111933;27;20198;-74
2021/05/03 12:21:44;;;;;;;11.93;10.82;;;;;;;;;;5110776;28;20666;-74
2021/05/03 12:24:14;;;;;;;11.38;10.48;;;;;;;;;;5110094;28;20195;-75
2021/05/03 12:26:56;;;;;;;11.80;10.80;;;;;;;;;;5121183;27;20193;-72
2021/05/03 12:29:23;;;;;;;12.02;10.93;;;;;;;;;;5116705;27;20597;-72
2021/05/03 12:31:49;;;;;;;11.52;10.52;;;;;;;;;;5131211;27;20174;-75
2021/05/03 12:34:21;;;;;;;12.48;11.38;;;;;;;;;;5130878;27;20173;-74
2021/05/03 12:37:06;;;;;;;11.52;10.32;;;;;;;;;;5131066;27;20169;-75
2021/05/03 12:39:32;;;;;;;12.50;11.20;;;;;;;;;;5109072;27;20170;-73
2021/05/03 12:42:10;;;;;;;11.95;10.85;;;;;;;;;;5122991;27;20178;-74
2021/05/03 12:44:40;;;;;;;12.27;10.88;;;;;;;;;;5130867;27;20229;-74
2021/05/03 12:47:16;;;;;;;13.48;12.15;;;;;;;;;;5130574;27;20181;-73
2021/05/03 12:49:42;;;;;;;12.50;11.50;;;;;;;;;;5130845;27;20198;-75
2021/05/03 12:52:12;;;;;;;11.83;10.90;;;;;;;;;;5113520;27;20251;-74
2021/05/03 12:54:47;;;;;;;12.52;11.52;;;;;;;;;;5108479;28;20814;-74
2021/05/03 12:57:26;;;;;;;11.63;10.73;;;;;;;;;;5128072;27;20629;-74
2021/05/03 13:10:17;;;;;;;11.80;10.85;;;;;;;;;;5117913;27;20240;-74
2021/05/03 13:30:01;;;;;;;11.80;10.80;;;;;;;;;;5118977;27;20222;-73
2021/05/03 13:32:29;;;;;;;13.52;12.32;;;;;;;;;;5113574;28;20179;-73
2021/05/03 13:34:55;;;;;;;13.38;12.23;;;;;;;;;;5114151;28;20181;-74
2021/05/03 13:37:22;;;;;;;13.23;12.13;;;;;;;;;;5121746;28;20966;-73
2021/05/03 13:39:48;;;;;;;14.02;12.73;;;;;;;;;;5126121;28;20184;-73
2021/05/03 13:42:15;;;;;;;14.20;12.90;;;;;;;;;;5108102;28;20182;-73
2021/05/03 13:44:41;;;;;;;15.77;14.38;;;;;;;;;;5126308;28;20209;-73
2021/05/03 13:47:07;;;;;;;15.85;14.35;;;;;;;;;;5119145;28;20581;-73
2021/05/03 13:49:34;;;;;;;16.70;15.10;;;;;;;;;;5114351;28;20316;-74
2021/05/03 13:52:04;;;;;;;17.42;15.73;;;;;;;;;;5130097;28;20182;-73
2021/05/03 13:54:30;;;;;;;19.25;17.38;;;;;;;;;;5106027;27;20776;-75
2021/05/03 13:57:00;;;;;;;19.03;17.20;;;;;;;;;;5120913;27;20382;-75
2021/05/03 13:59:27;;;;;;;19.50;17.67;;;;;;;;;;5111664;28;20436;-73
2021/05/03 14:01:53;;;;;;;18.20;16.35;;;;;;;;;;5113600;28;20277;-73
2021/05/03 14:04:19;;;;;;;17.45;15.82;;;;;;;;;;5123228;27;20193;-74
2021/05/03 14:06:48;;;;;;;17.45;15.88;;;;;;;;;;5119714;27;20623;-74
2021/05/03 14:09:15;;;;;;;17.35;15.73;;;;;;;;;;5124022;27;20294;-73
2021/05/03 14:11:41;;;;;;;16.48;14.80;;;;;;;;;;5108719;28;20198;-75
2021/05/03 14:14:07;;;;;;;15.30;13.90;;;;;;;;;;5124610;27;20209;-73
2021/05/03 14:16:33;;;;;;;14.73;13.32;;;;;;;;;;5133717;27;20538;-73
2021/05/03 14:19:02;;;;;;;14.02;12.65;;;;;;;;;;5123858;27;20297;-73
2021/05/03 14:21:28;;;;;;;14.65;13.35;;;;;;;;;;5115437;27;20171;-74
2021/05/03 14:23:54;;;;;;;13.02;11.80;;;;;;;;;;5118091;27;20185;-74
2021/05/03 14:26:23;;;;;;;12.60;11.50;;;;;;;;;;5121011;27;20215;-74
2021/05/03 14:28:55;;;;;;;13.32;12.02;;;;;;;;;;5111270;28;20198;-74
2021/05/03 14:31:26;;;;;;;12.63;11.30;;;;;;;;;;5126238;27;20251;-73
2021/05/03 14:34:06;;;;;;;12.40;11.10;;;;;;;;;;5111294;28;20217;-73
2021/05/03 14:36:33;;;;;;;13.48;12.23;;;;;;;;;;5114501;27;20177;-73
2021/05/03 14:38:59;;;;;;;12.50;11.40;;;;;;;;;;5122177;27;20205;-74
2021/05/03 14:41:25;;;;;;;12.50;11.30;;;;;;;;;;5112648;28;20656;-74
2021/05/03 14:43:51;;;;;;;12.70;11.50;;;;;;;;;;5105706;27;20426;-74
2021/05/03 14:46:38;;;;;;;13.27;11.98;;;;;;;;;;5127178;27;20178;-74
2021/05/03 14:56:54;;;;;;;14.32;13.02;;;;;;;;;;5113521;27;20190;-75
2021/05/03 14:59:20;;;;;;;13.55;12.25;;;;;;;;;;5112983;27;20193;-73
2021/05/03 15:01:46;;;;;;;13.40;12.27;;;;;;;;;;5112785;28;20202;-73
2021/05/03 15:04:12;;;;;;;12.98;11.88;;;;;;;;;;5130546;27;20403;-74
2021/05/03 15:06:39;;;;;;;12.00;11.00;;;;;;;;;;5131702;27;20197;-74
2021/05/03 15:09:10;;;;;;;12.70;11.52;;;;;;;;;;5131131;27;20466;-74
2021/05/03 15:11:36;;;;;;;13.05;11.88;;;;;;;;;;5111903;27;20171;-75
2021/05/03 15:14:13;;;;;;;13.93;12.70;;;;;;;;;;5121997;27;20177;-75
2021/05/03 15:21:46;;;;;;;13.70;12.40;;;;;;;;;;5132965;27;20188;-74
2021/05/03 15:24:14;;;;;;;14.27;12.88;;;;;;;;;;5132661;27;20174;-75
2021/05/03 15:26:46;;;;;;;13.63;12.43;;;;;;;;;;5132596;27;20600;-74
2021/05/03 15:31:48;;;;;;;12.60;11.40;;;;;;;;;;5129178;27;20233;-75
2021/05/03 15:34:14;;;;;;;13.98;12.70;;;;;;;;;;5132586;27;20284;-74
2021/05/03 15:36:40;;;;;;;13.20;11.95;;;;;;;;;;5132510;27;20182;-75
2021/05/03 15:39:07;;;;;;;13.83;12.43;;;;;;;;;;5121070;27;20531;-74
2021/05/03 15:41:33;;;;;;;13.95;12.65;;;;;;;;;;5125015;27;20419;-75
2021/05/03 15:44:07;;;;;;;14.57;13.27;;;;;;;;;;5132187;27;20673;-74
2021/05/03 15:46:34;;;;;;;12.88;11.55;;;;;;;;;;5132302;27;20184;-75
2021/05/03 15:49:00;;;;;;;14.02;12.63;;;;;;;;;;5132013;27;20241;-73